DB0LHR-6 Weather Reports


time (UTC)temp
F
wind
direction
speed
knots
gust
knots
rain 1hr
in
rain 24hr
in
rain mn
in
humidity
%
barometer
mb
20260902074749 65 123 0.0 0.0 0.00 0.00 0.00 56 1022.0
20260902073249 64 115 0.0 0.0 0.00 0.00 0.00 56 1022.0
20260902071749 63 119 0.0 0.0 0.00 0.00 0.00 62 1021.0
20260902070249 60 120 0.0 0.0 0.00 0.00 0.00 68 1021.0
20260902064749 59 156 0.0 0.0 0.00 0.00 0.00 70 1021.0
20260902063249 59 113 0.0 0.0 0.00 0.00 0.00 72 1021.0
20260902061749 58 115 0.0 0.0 0.00 0.00 0.00 72 1021.0
20260902060249 58 94 0.0 0.0 0.00 0.00 0.00 72 1021.0
20260902054749 57 95 0.0 0.0 0.00 0.00 0.00 74 1021.0
20260902053249 57 81 0.0 0.0 0.00 0.00 0.00 75 1021.0
20260902051749 57 112 0.0 0.0 0.00 0.00 0.00 74 1021.0
20260902050249 57 104 0.0 0.0 0.00 0.00 0.00 74 1021.0
20260902044749 57 92 0.0 0.0 0.00 0.00 0.00 75 1021.0
20260902043249 57 97 0.0 0.0 0.00 0.00 0.00 75 1021.0
20260902041749 57 97 0.0 0.0 0.00 0.00 0.00 76 1021.0
20260902040249 57 160 0.0 0.0 0.00 0.00 0.00 74 1021.0
20260902034749 57 154 0.0 0.0 0.00 0.00 0.00 73 1021.0
20260902033249 58 165 0.0 0.0 0.00 0.00 0.00 73 1021.0
20260902031749 58 89 0.0 0.0 0.00 0.00 0.00 72 1021.0
20260902030249 58 87 0.0 0.0 0.00 0.00 0.00 72 1021.0
20260902024749 58 95 0.0 0.0 0.00 0.00 0.00 72 1021.0
20260902023249 58 94 0.0 0.0 0.00 0.00 0.00 72 1021.0
20260902021749 58 62 0.0 0.0 0.00 0.00 0.00 71 1021.0
20260902020249 58 105 0.0 0.0 0.00 0.00 0.00 71 1021.0
20260902014749 58 160 0.0 0.0 0.00 0.00 0.00 72 1021.0
20260902013249 58 154 0.0 0.0 0.00 0.00 0.00 72 1021.0
20260902011749 59 149 0.0 0.0 0.00 0.00 0.00 71 1021.0
20260902010249 59 156 0.0 0.0 0.00 0.00 0.00 68 1021.0
20260902004749 60 91 0.0 0.0 0.00 0.00 0.00 67 1021.0
20260902003249 59 198 0.0 0.0 0.00 0.00 0.00 69 1021.0
20260902001749 60 172 0.0 0.0 0.00 0.00 0.00 68 1021.0
20260902000250 60 156 0.0 0.0 0.00 0.00 0.00 66 1021.0
20260901234749 61 150 0.0 0.0 0.00 0.00 0.00 65 1021.0
20260901233249 61 91 0.0 0.0 0.00 0.00 0.00 65 1021.0
20260901231749 61 163 0.0 0.0 0.00 0.00 0.00 64 1021.0
20260901230249 62 126 0.0 0.0 0.00 0.00 0.00 62 1021.0
20260901224749 62 51 0.0 0.0 0.00 0.00 0.00 60 1022.0
20260901223249 63 94 0.0 0.0 0.00 0.00 0.00 58 1021.0
20260901221749 63 85 0.0 0.0 0.00 0.00 0.00 57 1021.0
20260901220249 64 88 0.0 0.0 0.00 0.00 0.00 56 1021.0
20260901214749 64 59 0.0 0.0 0.00 0.00 0.00 55 1021.0
20260901213249 64 91 0.0 0.0 0.00 0.00 0.00 54 1021.0
20260901211749 65 85 0.0 0.0 0.00 0.00 0.00 52 1021.0
20260901210249 65 103 0.0 0.0 0.00 0.00 0.00 51 1021.0
20260901204749 66 88 0.0 0.0 0.00 0.00 0.00 50 1021.0
20260901203249 66 80 0.0 0.0 0.00 0.00 0.00 50 1022.0
20260901201749 66 132 0.9 0.0 0.00 0.00 0.00 49 1021.0
20260901200249 67 100 0.0 0.0 0.00 0.00 0.00 49 1021.0
20260901194749 67 83 0.0 0.0 0.00 0.00 0.00 47 1021.0
20260901193249 68 83 0.0 0.0 0.00 0.00 0.00 46 1021.0
20260901191749 68 85 0.0 0.0 0.00 0.00 0.00 44 1021.0
20260901190249 69 93 0.0 0.0 0.00 0.00 0.00 43 1021.0
20260901184749 70 92 0.0 0.0 0.00 0.00 0.00 42 1021.0
20260901183249 71 56 0.0 0.0 0.00 0.00 0.00 39 1021.0
20260901181749 71 5 0.0 0.0 0.00 0.00 0.00 37 1021.0
20260901180249 71 6 0.0 0.0 0.00 0.00 0.00 36 1021.0
20260901174749 72 5 0.0 0.0 0.00 0.00 0.00 34 1021.0
20260901173249 73 4 0.0 0.0 0.00 0.00 0.00 34 1021.0
20260901171749 74 4 0.0 0.0 0.00 0.00 0.00 32 1021.0
20260901170249 74 4 0.0 0.0 0.00 0.00 0.00 32 1021.0
20260901164749 75 5 0.0 0.0 0.00 0.00 0.00 32 1021.0
20260901163249 76 5 0.0 0.0 0.00 0.00 0.00 30 1021.0
20260901161749 76 4 0.0 0.0 0.00 0.00 0.00 30 1021.0
20260901160249 77 4 0.0 0.0 0.00 0.00 0.00 30 1021.0
20260901154749 78 323 0.0 0.0 0.00 0.00 0.00 26 1021.0
20260901153249 78 5 0.0 0.0 0.00 0.00 0.00 24 1021.0
20260901151749 79 334 0.0 0.0 0.00 0.00 0.00 25 1021.0
20260901150249 80 336 0.0 0.0 0.00 0.00 0.00 24 1021.0
20260901144749 80 339 0.0 0.0 0.00 0.00 0.00 25 1021.0
20260901143249 80 4 0.0 0.0 0.00 0.00 0.00 29 1021.0
20260901141749 80 339 0.0 0.0 0.00 0.00 0.00 29 1021.0
20260901140249 78 32 0.0 0.0 0.00 0.00 0.00 31 1021.0
20260901134749 77 340 0.0 0.0 0.00 0.00 0.00 33 1021.0
20260901133249 77 19 0.0 0.0 0.00 0.00 0.00 32 1022.0
20260901131749 77 5 0.0 0.0 0.00 0.00 0.00 32 1022.0
20260901130249 79 339 0.0 0.0 0.00 0.00 0.00 30 1022.0
20260901124749 79 315 0.0 0.0 0.00 0.00 0.00 27 1022.0
20260901123249 80 337 0.0 0.0 0.00 0.00 0.00 27 1022.0
20260901121749 78 5 0.0 0.0 0.00 0.00 0.00 30 1022.0
20260901120249 78 332 0.0 0.0 0.00 0.00 0.00 30 1022.0
20260901114749 80 252 0.0 0.0 0.00 0.00 0.00 26 1022.0
20260901113249 82 68 0.0 0.0 0.00 0.00 0.00 23 1022.0
20260901111749 82 174 0.0 0.0 0.00 0.00 0.00 24 1022.0
20260901110249 81 108 0.0 0.0 0.00 0.00 0.00 24 1022.0
20260901104749 80 272 0.0 0.0 0.00 0.00 0.00 28 1022.0
20260901103249 79 181 0.0 0.0 0.00 0.00 0.00 30 1022.0
20260901101749 79 243 0.0 0.0 0.00 0.00 0.00 30 1022.0
20260901100249 78 190 0.0 0.0 0.00 0.00 0.00 32 1023.0
20260901094749 76 337 0.0 0.0 0.00 0.00 0.00 34 1023.0
20260901093249 77 173 0.0 0.0 0.00 0.00 0.00 35 1023.0
20260901091749 76 207 0.0 0.0 0.00 0.00 0.00 35 1023.0
20260901090249 75 213 0.0 0.0 0.00 0.00 0.00 40 1023.0
20260901084749 73 6 0.0 0.0 0.00 0.00 0.00 42 1023.0
20260901083249 72 5 0.0 0.0 0.00 0.00 0.00 43 1023.0
20260901081749 73 176 0.0 0.0 0.00 0.00 0.00 45 1023.0
20260901080249 71 161 0.0 0.0 0.00 0.00 0.00 50 1023.0